Time;durP1;ratioP1;P1;durP2;ratioP2;P2;SDS_P1;SDS_P2;PMS_P1;PMS_P2;Temp;Humidity;BMP_temperature;BMP_pressure;BME280_temperature;BME280_humidity;BME280_pressure;Samples;Min_cycle;Max_cycle;Signal;HPM_P1;HPM_P2
2022/05/20 00:02:07;;;;;;;1.40;1.30;;;25.50;69.90;;;;;;5081232;28;20181;-93
2022/05/20 00:04:33;;;;;;;1.40;1.30;;;25.40;69.80;;;;;;5081165;28;20175;-94
2022/05/20 00:06:58;;;;;;;1.93;1.60;;;25.40;69.70;;;;;;5080690;28;20187;-94
2022/05/20 00:09:24;;;;;;;1.40;1.30;;;25.40;69.80;;;;;;5081216;28;20164;-94
2022/05/20 00:11:50;;;;;;;2.33;1.40;;;25.40;69.80;;;;;;5080632;28;20184;-94
2022/05/20 00:14:16;;;;;;;3.23;1.47;;;25.40;69.80;;;;;;5080868;28;20175;-93
2022/05/20 00:16:42;;;;;;;1.40;1.30;;;25.40;69.90;;;;;;5080897;28;20182;-94
2022/05/20 00:19:09;;;;;;;1.43;1.33;;;25.40;69.90;;;;;;5081034;28;20227;-94
2022/05/20 00:21:36;;;;;;;1.63;1.30;;;25.40;69.80;;;;;;5080940;28;20157;-93
2022/05/20 00:28:27;;;;;;;1.50;1.40;;;25.30;69.80;;;;;;4942743;29;20296;-93
2022/05/20 00:31:10;;;;;;;1.83;1.40;;;25.30;69.90;;;;;;4981198;28;20215;-93
2022/05/20 00:39:47;;;;;;;1.80;1.50;;;25.30;70.60;;;;;;5112347;22;20237;-92
2022/05/20 00:42:31;;;;;;;1.40;1.30;;;25.20;69.90;;;;;;5082783;28;20169;-92
2022/05/20 00:44:58;;;;;;;1.50;1.40;;;25.20;69.90;;;;;;5052553;28;20619;-92
2022/05/20 00:47:30;;;;;;;1.40;1.30;;;25.20;70.00;;;;;;5081778;28;20184;-92
2022/05/20 00:50:04;;;;;;;1.97;1.50;;;25.20;69.90;;;;;;5082012;28;20176;-92
2022/05/20 00:52:36;;;;;;;2.67;1.50;;;25.20;69.90;;;;;;5063987;28;20179;-92
2022/05/20 00:55:09;;;;;;;1.87;1.67;;;25.20;70.00;;;;;;5080449;28;20172;-92
2022/05/20 00:57:43;;;;;;;1.40;1.30;;;25.20;70.00;;;;;;5070244;28;20183;-93
2022/05/20 01:00:53;;;;;;;1.40;1.30;;;25.10;69.90;;;;;;5083463;28;20164;-93
2022/05/20 01:03:23;;;;;;;1.60;1.47;;;25.10;70.00;;;;;;5083312;28;20175;-93
2022/05/20 01:05:50;;;;;;;1.80;1.47;;;25.10;70.00;;;;;;5082439;28;20184;-94
2022/05/20 01:08:22;;;;;;;1.70;1.60;;;25.10;70.00;;;;;;5083369;28;20159;-93
2022/05/20 01:10:49;;;;;;;1.50;1.40;;;25.10;70.00;;;;;;5083208;28;20176;-92
2022/05/20 01:13:18;;;;;;;2.30;1.40;;;25.10;70.10;;;;;;5083354;28;20183;-91
2022/05/20 01:15:45;;;;;;;1.70;1.60;;;25.10;70.10;;;;;;5083078;28;20187;-93
2022/05/20 01:18:12;;;;;;;1.80;1.50;;;25.10;70.10;;;;;;5083005;28;20191;-94
2022/05/20 01:20:43;;;;;;;1.43;1.33;;;25.10;70.10;;;;;;5083042;28;20154;-92
2022/05/20 01:23:16;;;;;;;1.50;1.40;;;25.00;70.10;;;;;;5083000;28;20202;-93
2022/05/20 01:25:45;;;;;;;1.53;1.43;;;25.00;70.10;;;;;;5083129;28;20158;-92
2022/05/20 01:28:27;;;;;;;2.33;1.40;;;25.00;70.10;;;;;;5083021;28;20164;-93
2022/05/20 01:30:58;;;;;;;1.60;1.50;;;25.00;70.10;;;;;;5064981;28;20180;-93
2022/05/20 01:33:32;;;;;;;1.30;1.20;;;25.00;70.20;;;;;;5065006;28;20429;-92
2022/05/20 01:36:00;;;;;;;1.90;1.57;;;25.00;70.20;;;;;;5064689;28;20226;-92
2022/05/20 01:38:27;;;;;;;1.43;1.33;;;24.90;70.20;;;;;;5066034;28;20238;-93
2022/05/20 01:41:21;;;;;;;1.67;1.50;;;24.90;70.20;;;;;;5066526;28;20213;-93
2022/05/20 01:43:47;;;;;;;1.57;1.47;;;24.90;70.20;;;;;;5062381;28;20179;-93
2022/05/20 01:46:39;;;;;;;1.50;1.37;;;24.90;70.30;;;;;;5066496;28;20177;-92
2022/05/20 01:49:36;;;;;;;1.67;1.53;;;24.90;70.20;;;;;;5066339;28;20211;-92
2022/05/20 01:52:21;;;;;;;1.53;1.43;;;24.90;70.30;;;;;;5066220;28;20205;-92
2022/05/20 01:54:53;;;;;;;1.70;1.47;;;24.90;70.30;;;;;;5065741;28;20179;-92
2022/05/20 01:57:58;;;;;;;1.60;1.50;;;24.90;70.30;;;;;;5065081;28;20237;-93
2022/05/20 02:00:27;;;;;;;1.43;1.33;;;24.90;70.30;;;;;;5064142;28;20183;-92
2022/05/20 02:03:31;;;;;;;1.60;1.50;;;24.80;70.30;;;;;;5066510;28;20188;-93
2022/05/20 02:06:06;;;;;;;1.50;1.40;;;24.80;70.20;;;;;;5078222;28;20191;-92
2022/05/20 02:09:22;;;;;;;1.30;1.20;;;24.80;70.30;;;;;;5063322;28;20171;-93
2022/05/20 02:11:56;;;;;;;1.67;1.40;;;24.80;70.30;;;;;;5078235;28;20183;-92
2022/05/20 02:15:09;;;;;;;1.70;1.60;;;24.80;70.30;;;;;;5079370;28;20191;-92
2022/05/20 02:20:55;;;;;;;1.40;1.30;;;24.80;70.20;;;;;;5141602;22;20271;-92
2022/05/20 02:27:12;;;;;;;1.77;1.40;;;24.80;70.30;;;;;;5019753;28;20180;-93
2022/05/20 02:30:00;;;;;;;1.43;1.33;;;24.70;70.30;;;;;;5020985;28;20173;-93
2022/05/20 02:33:23;;;;;;;2.00;1.50;;;24.70;70.20;;;;;;5019007;28;20209;-93
2022/05/20 02:35:49;;;;;;;2.27;1.50;;;24.70;70.20;;;;;;5002659;28;20177;-92
2022/05/20 02:41:26;;;;;;;1.40;1.30;;;24.70;70.20;;;;;;5078200;28;20172;-92
2022/05/20 02:43:52;;;;;;;1.60;1.50;;;24.70;70.20;;;;;;5061346;28;20200;-93
2022/05/20 02:46:17;;;;;;;1.87;1.50;;;24.70;70.10;;;;;;5061280;28;20183;-91
2022/05/20 02:48:43;;;;;;;2.30;1.40;;;24.60;70.00;;;;;;5061019;28;20157;-93
2022/05/20 02:51:11;;;;;;;1.60;1.50;;;24.60;70.10;;;;;;5061311;28;20175;-93
2022/05/20 02:53:37;;;;;;;1.40;1.30;;;24.60;70.00;;;;;;5061376;28;20159;-93
2022/05/20 02:56:03;;;;;;;1.67;1.57;;;24.60;70.00;;;;;;5061306;28;20208;-92
2022/05/20 03:04:10;;;;;;;1.50;1.40;;;24.60;70.00;;;;;;5077949;28;20187;-92
2022/05/20 03:06:42;;;;;;;1.50;1.40;;;24.60;70.00;;;;;;5061148;28;20151;-92
2022/05/20 03:09:16;;;;;;;1.93;1.23;;;24.60;70.00;;;;;;5056544;28;20191;-92
2022/05/20 03:11:42;;;;;;;1.83;1.40;;;24.60;70.10;;;;;;5062571;28;20175;-92
2022/05/20 03:18:24;;;;;;;1.50;1.40;;;24.50;70.30;;;;;;5017816;28;20216;-93
2022/05/20 03:26:16;;;;;;;1.90;1.60;;;24.50;70.80;;;;;;5077504;28;20227;-92
2022/05/20 03:29:05;;;;;;;1.50;1.40;;;24.50;70.90;;;;;;5286715;22;20174;-92
2022/05/20 03:31:36;;;;;;;2.20;1.40;;;24.50;71.00;;;;;;5020890;28;20220;-92
2022/05/20 03:34:46;;;;;;;1.70;1.40;;;24.50;71.10;;;;;;5020935;28;20178;-92
2022/05/20 03:41:10;;;;;;;1.50;1.40;;;24.50;71.40;;;;;;5015103;28;20197;-92
2022/05/20 03:44:12;;;;;;;1.70;1.60;;;24.50;71.60;;;;;;5010997;28;20262;-92
2022/05/20 03:47:54;;;;;;;1.60;1.50;;;24.40;71.60;;;;;;4999479;28;20289;-92
2022/05/20 03:51:06;;;;;;;2.20;1.40;;;24.40;71.70;;;;;;5018465;28;20584;-92
2022/05/20 04:18:43;;;;;;;2.13;1.83;;;24.40;72.50;;;;;;5078880;28;20230;-92
2022/05/20 04:22:18;;;;;;;2.07;1.83;;;24.40;72.40;;;;;;5027436;28;20173;-92
2022/05/20 04:25:48;;;;;;;1.83;1.63;;;24.40;72.40;;;;;;5040146;28;20484;-92
2022/05/20 04:28:58;;;;;;;2.17;1.63;;;24.40;72.20;;;;;;5034106;28;20185;-92
2022/05/20 04:34:03;;;;;;;3.10;1.90;;;24.40;72.00;;;;;;5317503;22;20210;-94
2022/05/20 04:37:06;;;;;;;2.07;1.87;;;24.40;71.90;;;;;;5079156;28;20214;-92
2022/05/20 04:40:09;;;;;;;3.30;2.00;;;24.40;71.80;;;;;;5024855;28;20202;-91
2022/05/20 04:56:20;;;;;;;3.70;1.80;;;24.50;71.30;;;;;;5080013;28;20292;-92
2022/05/20 04:59:30;;;;;;;3.87;2.40;;;24.50;71.10;;;;;;5071618;28;20223;-92
2022/05/20 05:03:11;;;;;;;3.80;2.10;;;24.50;71.00;;;;;;5001012;28;20499;-92
2022/05/20 05:06:43;;;;;;;3.10;1.93;;;24.50;71.40;;;;;;4993402;28;20209;-92
2022/05/20 05:09:18;;;;;;;2.77;1.83;;;24.50;70.50;;;;;;5026879;28;20240;-92
2022/05/20 05:15:06;;;;;;;2.20;1.80;;;24.50;70.10;;;;;;5059623;28;20184;-91
2022/05/20 05:20:20;;;;;;;3.20;1.90;;;24.50;70.30;;;;;;5059663;28;20164;-92
2022/05/20 05:22:48;;;;;;;2.40;1.93;;;24.50;70.40;;;;;;5042855;28;20232;-92
2022/05/20 05:25:14;;;;;;;5.07;2.20;;;24.50;70.50;;;;;;5042774;28;20207;-91
2022/05/20 05:27:40;;;;;;;4.17;2.03;;;24.50;70.50;;;;;;5059106;28;20194;-93
2022/05/20 05:43:37;;;;;;;3.33;2.20;;;24.60;69.30;;;;;;5094483;28;20235;-94
2022/05/20 05:46:03;;;;;;;2.30;1.90;;;24.70;68.60;;;;;;5071893;28;20153;-93
2022/05/20 05:48:28;;;;;;;4.00;2.30;;;24.90;67.40;;;;;;5074397;28;20206;-94
2022/05/20 05:50:55;;;;;;;5.37;2.30;;;25.00;65.90;;;;;;5072267;28;20257;-93
2022/05/20 05:53:25;;;;;;;3.43;2.23;;;25.10;65.10;;;;;;5071882;28;20205;-94
2022/05/20 05:55:56;;;;;;;4.10;2.20;;;25.20;64.70;;;;;;5070816;28;20171;-93
2022/05/20 05:58:22;;;;;;;2.50;2.30;;;25.10;64.60;;;;;;5069018;28;20303;-93
2022/05/20 06:00:47;;;;;;;3.63;2.27;;;25.10;64.50;;;;;;5068288;28;20196;-94
2022/05/20 06:03:15;;;;;;;3.93;2.30;;;25.20;64.20;;;;;;5069993;28;20177;-93
2022/05/20 06:05:42;;;;;;;4.23;2.03;;;25.30;63.10;;;;;;5072399;28;20177;-94
2022/05/20 06:08:09;;;;;;;3.07;2.23;;;25.60;61.50;;;;;;5072254;28;20178;-94
2022/05/20 06:10:35;;;;;;;5.53;2.20;;;25.70;60.10;;;;;;5072378;28;20225;-94
2022/05/20 06:13:01;;;;;;;3.90;2.13;;;25.90;59.40;;;;;;5071793;28;20176;-94
2022/05/20 06:15:28;;;;;;;3.10;2.27;;;26.00;58.90;;;;;;5074124;28;20175;-94
2022/05/20 06:17:55;;;;;;;3.73;2.20;;;26.10;58.30;;;;;;5075940;28;20271;-94
2022/05/20 06:20:23;;;;;;;3.97;1.97;;;26.30;57.90;;;;;;5074006;28;20179;-93
2022/05/20 06:22:49;;;;;;;3.47;2.10;;;26.40;57.50;;;;;;5070991;28;20172;-93
2022/05/20 06:25:21;;;;;;;3.67;2.20;;;26.50;57.50;;;;;;5073498;28;20164;-94
2022/05/20 06:27:46;;;;;;;2.47;2.00;;;26.70;56.80;;;;;;5073232;28;20202;-94
2022/05/20 06:30:17;;;;;;;3.93;2.23;;;26.70;56.40;;;;;;5072919;28;20180;-94
2022/05/20 06:32:43;;;;;;;3.17;2.00;;;26.80;56.10;;;;;;5071666;28;20176;-93
2022/05/20 06:40:47;;;;;;;2.97;2.20;;;27.10;55.20;;;;;;5089994;28;20186;-94
2022/05/20 06:43:18;;;;;;;6.32;2.45;;;27.20;54.90;;;;;;5071636;28;20209;-94
2022/05/20 06:45:46;;;;;;;2.38;1.83;;;27.30;54.70;;;;;;5068194;28;20495;-94
2022/05/20 06:48:13;;;;;;;5.28;2.00;;;27.40;54.50;;;;;;5071217;28;20183;-94
2022/05/20 06:50:40;;;;;;;3.90;2.05;;;27.40;54.30;;;;;;5072138;28;20155;-94
2022/05/20 06:53:07;;;;;;;3.00;1.90;;;27.40;54.10;;;;;;5080171;28;20187;-94
2022/05/20 06:55:33;;;;;;;7.03;2.10;;;27.50;54.00;;;;;;5078058;28;20190;-95
2022/05/20 06:58:00;;;;;;;4.25;2.00;;;27.60;53.90;;;;;;5078102;28;20206;-95
2022/05/20 07:00:25;;;;;;;2.40;1.90;;;27.60;53.70;;;;;;5073913;28;20151;-94
2022/05/20 07:02:51;;;;;;;2.17;1.83;;;27.70;53.60;;;;;;5077362;28;20209;-95
2022/05/20 07:05:17;;;;;;;2.60;1.92;;;27.70;53.40;;;;;;5074494;28;20167;-95
2022/05/20 07:07:43;;;;;;;3.70;2.22;;;27.90;53.30;;;;;;5072195;28;20206;-95
2022/05/20 07:10:10;;;;;;;2.30;2.10;;;27.90;53.20;;;;;;5071534;28;20171;-94
2022/05/20 07:12:36;;;;;;;3.03;2.25;;;27.90;53.10;;;;;;5075314;28;20197;-95
2022/05/20 07:15:02;;;;;;;2.63;1.95;;;27.90;53.00;;;;;;5074801;28;20206;-95
2022/05/20 07:17:28;;;;;;;2.45;1.83;;;28.00;53.00;;;;;;5071452;28;20215;-95
2022/05/20 07:19:54;;;;;;;2.15;1.92;;;28.00;52.90;;;;;;5069316;28;20202;-95
2022/05/20 07:22:20;;;;;;;3.15;2.13;;;28.10;52.80;;;;;;5067643;28;20172;-93
2022/05/20 07:24:46;;;;;;;2.42;1.73;;;28.10;53.20;;;;;;5059746;28;20179;-94
2022/05/20 07:27:12;;;;;;;2.72;2.10;;;28.20;52.70;;;;;;5058133;28;20176;-94
2022/05/20 07:29:38;;;;;;;2.10;1.90;;;28.20;52.60;;;;;;5057106;28;20471;-93
2022/05/20 07:32:04;;;;;;;2.10;1.90;;;28.30;52.60;;;;;;5055266;28;20213;-94
2022/05/20 07:34:30;;;;;;;2.72;1.83;;;28.20;52.70;;;;;;5055020;28;20559;-93
2022/05/20 07:36:58;;;;;;;2.08;1.85;;;28.10;52.80;;;;;;5059050;28;20176;-94
2022/05/20 07:39:24;;;;;;;3.42;2.10;;;28.00;53.10;;;;;;5059054;28;20245;-94
2022/05/20 07:41:49;;;;;;;2.17;1.92;;;27.90;53.30;;;;;;5055047;28;20520;-93
2022/05/20 07:44:16;;;;;;;2.45;2.00;;;27.70;53.60;;;;;;5059449;28;20171;-93
2022/05/20 07:46:42;;;;;;;2.40;1.88;;;27.60;54.00;;;;;;5059918;28;20167;-93
2022/05/20 07:49:07;;;;;;;2.73;2.00;;;27.50;54.20;;;;;;5058647;28;20335;-93
2022/05/20 07:51:34;;;;;;;2.00;1.90;;;27.50;54.30;;;;;;5056658;28;20966;-93
2022/05/20 07:54:04;;;;;;;2.15;1.90;;;27.50;54.30;;;;;;5057224;28;20187;-93
2022/05/20 07:56:35;;;;;;;3.55;1.98;;;27.70;54.30;;;;;;5057528;28;20187;-92
2022/05/20 08:33:11;;;;;;;2.60;2.00;;;28.40;53.70;;;;;;5095368;22;20219;-4
2022/05/20 08:35:37;;;;;;;2.97;2.08;;;28.30;53.90;;;;;;5075532;28;20560;-4
2022/05/20 08:38:04;;;;;;;3.25;2.22;;;28.20;54.00;;;;;;5074427;28;20203;-6
2022/05/20 08:40:41;;;;;;;2.30;2.10;;;28.10;54.20;;;;;;5068828;28;20164;-4
2022/05/20 08:43:07;;;;;;;2.45;2.22;;;28.00;54.40;;;;;;5044979;28;20429;-5
2022/05/20 08:45:33;;;;;;;2.88;2.40;;;28.00;54.70;;;;;;5068590;28;20171;-5
2022/05/20 08:47:59;;;;;;;2.40;2.20;;;27.90;54.90;;;;;;5068377;28;20186;-6
2022/05/20 08:50:41;;;;;;;2.33;2.07;;;27.80;55.00;;;;;;5068830;28;20232;-7
2022/05/20 08:53:17;;;;;;;2.53;2.30;;;27.80;55.20;;;;;;5068542;28;20168;-7
2022/05/20 08:55:43;;;;;;;3.17;2.47;;;27.80;55.30;;;;;;5069561;28;20240;-6
2022/05/20 08:58:14;;;;;;;3.43;2.57;;;27.70;55.40;;;;;;5049374;28;20629;-6
2022/05/20 09:00:40;;;;;;;3.27;2.40;;;27.60;55.50;;;;;;5068705;28;20266;-7
2022/05/20 09:03:08;;;;;;;2.50;2.30;;;27.60;55.70;;;;;;5067630;28;20290;-6
2022/05/20 09:05:38;;;;;;;2.27;2.03;;;27.50;55.90;;;;;;5066739;28;20175;-7
2022/05/20 09:08:22;;;;;;;2.73;2.30;;;27.50;56.10;;;;;;5067694;28;20293;-6
2022/05/20 09:10:51;;;;;;;2.33;2.07;;;27.50;56.20;;;;;;5050595;28;20175;-6
2022/05/20 09:16:22;;;;;;;2.73;2.37;;;27.40;56.30;;;;;;5063250;28;20206;-7
2022/05/20 09:18:50;;;;;;;3.50;2.43;;;27.40;56.40;;;;;;5049690;28;20408;-7
2022/05/20 09:21:33;;;;;;;2.63;2.43;;;27.40;56.50;;;;;;5066854;28;20600;-7
2022/05/20 09:24:17;;;;;;;2.93;2.50;;;27.50;56.70;;;;;;5066500;28;20535;-6
2022/05/20 09:27:07;;;;;;;4.80;2.40;;;27.50;56.70;;;;;;5048273;28;20184;-7
2022/05/20 09:29:42;;;;;;;3.03;2.60;;;27.50;56.80;;;;;;5049510;28;20180;-7
2022/05/20 09:32:36;;;;;;;3.33;2.50;;;27.50;56.90;;;;;;5047146;28;20306;-6
2022/05/20 09:35:13;;;;;;;2.70;2.20;;;27.50;57.00;;;;;;5048267;28;20454;-7
2022/05/20 09:37:39;;;;;;;3.40;2.73;;;27.50;56.90;;;;;;5066944;28;20329;-8
2022/05/20 09:40:25;;;;;;;2.77;2.50;;;27.50;57.00;;;;;;5049977;28;20270;-7
2022/05/20 09:43:31;;;;;;;3.00;2.70;;;27.50;57.00;;;;;;5049923;28;20179;-7
2022/05/20 09:45:59;;;;;;;3.50;2.53;;;27.60;57.00;;;;;;5053838;28;20171;-7
2022/05/20 09:48:51;;;;;;;3.97;2.73;;;27.60;57.10;;;;;;5067360;28;20221;-6
2022/05/20 09:51:29;;;;;;;3.17;2.70;;;27.60;57.00;;;;;;5066536;28;20176;-7
2022/05/20 09:54:10;;;;;;;3.43;2.73;;;27.60;57.00;;;;;;5049277;28;20302;-6
2022/05/20 09:56:41;;;;;;;3.57;3.07;;;27.60;57.10;;;;;;5066736;28;20167;-8
2022/05/20 09:59:17;;;;;;;3.00;2.70;;;27.60;57.10;;;;;;5031307;28;20310;-6
2022/05/20 10:02:12;;;;;;;3.00;2.70;;;27.60;57.30;;;;;;5066737;28;20424;-5
2022/05/20 10:04:58;;;;;;;4.17;2.87;;;27.60;57.60;;;;;;5025944;28;20270;-8
2022/05/20 10:07:53;;;;;;;4.28;2.85;;;27.70;57.30;;;;;;5066670;28;20171;-6
2022/05/20 10:10:45;;;;;;;3.92;2.90;;;27.70;57.20;;;;;;5051107;28;20542;-7
2022/05/20 10:13:18;;;;;;;3.67;3.28;;;27.70;57.30;;;;;;5066692;28;20163;-7
2022/05/20 10:15:48;;;;;;;4.18;2.88;;;27.70;57.30;;;;;;5067083;28;20167;-7
2022/05/20 10:18:32;;;;;;;4.18;3.05;;;27.80;57.30;;;;;;5067615;28;20538;-7
2022/05/20 10:21:26;;;;;;;3.42;3.10;;;27.80;57.40;;;;;;5048996;28;20274;-7
2022/05/20 10:24:07;;;;;;;4.50;3.72;;;27.70;57.50;;;;;;5065343;28;20164;-7
2022/05/20 10:26:49;;;;;;;3.33;3.03;;;27.80;57.60;;;;;;5066984;28;20265;-5
2022/05/20 10:32:35;;;;;;;3.63;3.28;;;27.70;57.70;;;;;;5065033;28;20493;-6
2022/05/20 10:35:08;;;;;;;4.40;3.88;;;27.80;57.80;;;;;;5066076;28;20179;-7
2022/05/20 10:37:52;;;;;;;4.28;3.10;;;27.80;57.80;;;;;;5065569;28;20195;-6
2022/05/20 10:40:47;;;;;;;4.13;3.60;;;27.80;57.80;;;;;;5036017;28;20473;-7
2022/05/20 10:49:22;;;;;;;6.03;4.10;;;27.90;58.20;;;;;;5059281;28;20232;-8
2022/05/20 10:52:07;;;;;;;4.90;3.70;;;27.80;58.20;;;;;;5038935;28;20175;-6
2022/05/20 10:54:45;;;;;;;4.47;3.93;;;27.80;58.30;;;;;;5053525;28;20179;-7
2022/05/20 10:57:42;;;;;;;4.50;3.97;;;27.90;58.50;;;;;;5066081;28;20457;-5
2022/05/20 11:00:48;;;;;;;4.30;3.50;;;27.90;58.40;;;;;;5023373;28;20290;-6
2022/05/20 11:03:24;;;;;;;5.82;3.97;;;27.90;58.30;;;;;;5066492;28;20180;-7
2022/05/20 11:06:49;;;;;;;4.87;4.20;;;27.90;58.60;;;;;;5036565;28;20171;-6
2022/05/20 11:09:35;;;;;;;4.30;3.90;;;27.90;58.70;;;;;;4996426;28;20214;-7
2022/05/20 11:12:03;;;;;;;5.30;4.80;;;28.00;58.80;;;;;;5071535;28;20199;-7
2022/05/20 11:14:57;;;;;;;5.13;4.10;;;28.00;58.70;;;;;;5070741;28;20285;-7
2022/05/20 11:17:43;;;;;;;4.33;3.93;;;28.00;58.90;;;;;;5068786;28;20163;-7
2022/05/20 11:20:29;;;;;;;6.50;4.70;;;28.00;58.90;;;;;;5051369;28;20555;-7
2022/05/20 11:23:25;;;;;;;5.20;4.33;;;28.00;59.40;;;;;;5069619;28;20224;-5
2022/05/20 11:26:12;;;;;;;6.60;4.70;;;28.00;59.10;;;;;;5051611;28;20178;-6
2022/05/20 11:29:28;;;;;;;5.27;3.87;;;28.00;59.10;;;;;;5069524;28;20168;-6
2022/05/20 11:32:07;;;;;;;5.67;4.30;;;28.00;59.20;;;;;;4990548;28;20187;-6
2022/05/20 11:35:11;;;;;;;4.80;4.30;;;28.00;59.20;;;;;;5068363;28;20512;-6
2022/05/20 11:38:12;;;;;;;5.20;4.70;;;28.00;59.30;;;;;;5061556;28;20191;-7
2022/05/20 11:40:58;;;;;;;4.97;4.50;;;28.00;59.40;;;;;;5049361;28;20415;-7
2022/05/20 11:43:43;;;;;;;5.40;4.40;;;28.10;59.50;;;;;;5053165;28;20188;-7
2022/05/20 11:46:53;;;;;;;5.70;4.73;;;28.10;60.00;;;;;;5040755;28;20199;-6
2022/05/20 11:49:46;;;;;;;7.00;4.80;;;28.00;59.60;;;;;;5014045;28;20543;-6
2022/05/20 11:52:31;;;;;;;4.43;4.03;;;28.10;59.60;;;;;;5050781;28;20280;-7
2022/05/20 11:55:18;;;;;;;5.07;4.33;;;28.10;59.70;;;;;;5039927;28;20163;-7
2022/05/20 11:57:49;;;;;;;5.03;4.50;;;28.10;59.70;;;;;;5069016;28;20615;-6
2022/05/20 12:00:19;;;;;;;6.40;5.20;;;28.10;59.70;;;;;;5057347;28;20443;-7
2022/05/20 12:03:26;;;;;;;6.13;5.20;;;28.10;59.90;;;;;;5068882;28;20164;-5
2022/05/20 12:05:53;;;;;;;5.10;4.60;;;28.10;59.90;;;;;;4987825;28;20177;-7
2022/05/20 12:08:37;;;;;;;5.47;4.80;;;28.10;60.20;;;;;;5056988;28;20282;-6
2022/05/20 12:11:27;;;;;;;6.13;5.27;;;28.10;60.40;;;;;;5070494;28;20164;-7
2022/05/20 12:14:01;;;;;;;6.97;5.37;;;28.10;60.30;;;;;;5070201;28;20171;-6
2022/05/20 12:16:28;;;;;;;4.90;4.50;;;28.10;60.50;;;;;;5070647;28;20278;-7
2022/05/20 12:25:31;;;;;;;5.27;4.77;;;28.10;60.70;;;;;;5069856;28;20605;-7
2022/05/20 12:28:27;;;;;;;5.50;5.00;;;28.10;61.20;;;;;;5051737;28;20180;-7
2022/05/20 12:31:05;;;;;;;5.00;4.60;;;28.20;61.40;;;;;;5052678;28;20202;-6
2022/05/20 12:34:06;;;;;;;5.73;5.23;;;28.20;61.60;;;;;;5069969;28;20551;-8
2022/05/20 12:36:31;;;;;;;5.60;5.10;;;28.20;62.00;;;;;;5070356;28;20168;-6
2022/05/20 12:39:09;;;;;;;6.53;5.27;;;28.20;61.80;;;;;;5069447;28;20231;-7
2022/05/20 12:41:51;;;;;;;5.87;5.10;;;28.10;62.00;;;;;;5051717;28;20558;-8
2022/05/20 12:44:17;;;;;;;6.63;5.70;;;28.10;62.50;;;;;;5049640;28;20237;-7
2022/05/20 12:46:49;;;;;;;6.27;5.67;;;28.10;62.90;;;;;;5068997;28;20343;-11
2022/05/20 12:49:14;;;;;;;7.53;5.60;;;28.10;63.00;;;;;;5069161;28;20392;-7
2022/05/20 12:51:47;;;;;;;6.00;5.40;;;28.10;63.20;;;;;;5069392;28;20604;-7
2022/05/20 12:54:26;;;;;;;6.20;5.60;;;28.00;63.50;;;;;;5069302;28;20528;-7
2022/05/20 12:56:55;;;;;;;5.67;5.17;;;28.10;63.70;;;;;;5069349;28;20617;-7
2022/05/20 12:59:22;;;;;;;6.53;5.23;;;28.10;63.90;;;;;;5069449;28;20203;-7
2022/05/20 13:01:57;;;;;;;5.67;5.17;;;28.00;63.80;;;;;;5069906;28;20195;-5
2022/05/20 13:04:24;;;;;;;5.50;5.00;;;28.00;63.90;;;;;;5070306;28;20176;-5
2022/05/20 13:06:58;;;;;;;6.03;5.43;;;28.00;63.90;;;;;;5068833;28;20171;-7
2022/05/20 13:09:36;;;;;;;5.70;5.20;;;28.00;64.10;;;;;;5051312;28;20481;-6
2022/05/20 13:12:07;;;;;;;5.67;5.17;;;27.90;64.00;;;;;;5051931;28;20167;-7
2022/05/20 13:14:34;;;;;;;5.67;5.17;;;27.90;64.20;;;;;;5069930;28;20183;-7
2022/05/20 13:17:03;;;;;;;5.80;5.27;;;27.90;64.30;;;;;;5051557;28;20446;-7
2022/05/20 13:19:34;;;;;;;6.07;5.40;;;27.90;64.40;;;;;;5051836;28;20432;-6
2022/05/20 13:22:04;;;;;;;6.00;5.40;;;27.90;64.70;;;;;;5050135;28;20178;-8
2022/05/20 13:24:34;;;;;;;5.83;5.33;;;27.80;64.70;;;;;;5069379;28;20174;-6
2022/05/20 13:27:13;;;;;;;6.03;5.50;;;27.80;65.00;;;;;;5050410;28;20172;-7
2022/05/20 13:29:43;;;;;;;6.57;5.40;;;27.80;65.00;;;;;;5068250;28;20658;-7
2022/05/20 13:32:16;;;;;;;6.27;5.60;;;27.80;65.10;;;;;;5069157;28;20198;-5
2022/05/20 13:34:43;;;;;;;7.23;5.63;;;27.70;65.30;;;;;;5051637;28;20203;-7
2022/05/20 13:37:12;;;;;;;5.93;5.43;;;27.70;65.50;;;;;;5051632;28;20171;-7
2022/05/20 13:39:40;;;;;;;5.67;5.17;;;27.70;65.70;;;;;;5068773;28;20478;-6
2022/05/20 13:42:13;;;;;;;6.03;5.43;;;27.70;65.70;;;;;;5050885;28;20182;-6
2022/05/20 13:44:45;;;;;;;5.43;4.93;;;27.60;65.90;;;;;;5068985;28;20174;-7
2022/05/20 13:50:04;;;;;;;5.90;5.37;;;27.60;65.90;;;;;;5069827;28;20174;-6
2022/05/20 13:52:31;;;;;;;5.77;5.27;;;27.60;66.00;;;;;;5052112;28;20179;-6
2022/05/20 13:55:01;;;;;;;6.00;5.40;;;27.60;66.30;;;;;;5069655;28;20278;-5
2022/05/20 13:57:35;;;;;;;6.60;5.13;;;27.60;66.40;;;;;;5069304;28;20582;-5
2022/05/20 14:00:14;;;;;;;6.03;5.47;;;27.50;66.50;;;;;;5067702;28;20461;-7
2022/05/20 14:02:42;;;;;;;6.00;5.50;;;27.50;66.80;;;;;;5068718;28;20273;-6
2022/05/20 14:05:19;;;;;;;6.43;5.80;;;27.50;67.20;;;;;;5070893;28;20310;-7
2022/05/20 14:07:51;;;;;;;5.97;5.47;;;27.50;67.90;;;;;;5053203;28;20186;-5
2022/05/20 14:10:31;;;;;;;5.60;5.10;;;27.50;67.50;;;;;;5053355;28;20412;-7
2022/05/20 14:13:10;;;;;;;6.93;5.70;;;27.50;67.60;;;;;;5071216;28;20195;-6
2022/05/20 14:15:42;;;;;;;5.77;5.17;;;27.50;67.80;;;;;;5053145;28;20541;-7
2022/05/20 14:18:23;;;;;;;6.77;5.30;;;27.50;67.60;;;;;;5069573;28;20191;-7
2022/05/20 14:21:05;;;;;;;5.70;5.20;;;27.50;67.50;;;;;;5052682;28;20557;-7
2022/05/20 14:23:39;;;;;;;6.53;5.93;;;27.50;67.50;;;;;;5069396;28;20160;-6
2022/05/20 14:26:21;;;;;;;5.70;5.20;;;27.50;67.70;;;;;;5069858;28;20171;-7
2022/05/20 14:28:57;;;;;;;5.63;5.13;;;27.40;68.30;;;;;;5051217;28;20171;-7
2022/05/20 14:31:51;;;;;;;6.60;5.37;;;27.40;68.50;;;;;;5052239;28;20167;-5
2022/05/20 14:34:31;;;;;;;6.47;5.40;;;27.40;69.00;;;;;;5069779;28;20191;-8
2022/05/20 14:37:02;;;;;;;5.60;5.10;;;27.40;68.80;;;;;;5052200;28;20163;-6
2022/05/20 14:39:29;;;;;;;6.20;5.60;;;27.40;68.80;;;;;;5052176;28;20199;-6
2022/05/20 14:42:19;;;;;;;5.80;5.00;;;27.40;68.70;;;;;;5068524;28;20167;-6
2022/05/20 14:44:50;;;;;;;5.50;4.77;;;27.40;68.80;;;;;;5069359;28;20175;-5
2022/05/20 14:47:32;;;;;;;6.40;4.77;;;27.40;69.00;;;;;;5070272;28;20159;-5
2022/05/20 14:50:14;;;;;;;5.67;5.13;;;27.40;69.20;;;;;;5069406;28;20164;-5
2022/05/20 14:52:54;;;;;;;5.20;4.80;;;27.30;69.50;;;;;;5051058;28;20175;-6
2022/05/20 14:55:42;;;;;;;5.90;5.23;;;27.30;69.80;;;;;;5069275;28;20650;-7
2022/05/20 14:58:13;;;;;;;6.10;5.00;;;27.30;70.00;;;;;;5068083;28;20199;-6
2022/05/20 15:00:51;;;;;;;5.40;4.70;;;27.30;70.30;;;;;;5049558;28;20259;-5
2022/05/20 15:03:17;;;;;;;5.93;5.00;;;27.30;70.90;;;;;;5049828;28;20171;-6
2022/05/20 15:05:43;;;;;;;6.30;4.70;;;27.30;71.20;;;;;;5066763;28;20236;-6
2022/05/20 15:08:12;;;;;;;6.73;4.70;;;27.20;71.30;;;;;;5068142;28;20258;-6
2022/05/20 15:10:38;;;;;;;7.70;5.30;;;27.20;71.60;;;;;;5067945;28;20167;-6
2022/05/20 15:13:04;;;;;;;5.40;4.83;;;27.10;71.70;;;;;;5067887;28;20178;-7
2022/05/20 15:15:31;;;;;;;8.40;5.20;;;27.10;72.00;;;;;;5066253;28;20232;-7
2022/05/20 15:17:59;;;;;;;6.90;5.00;;;27.10;72.20;;;;;;5049464;28;20222;-6
2022/05/20 15:20:25;;;;;;;6.50;5.17;;;27.10;72.40;;;;;;5049035;28;20175;-5
2022/05/20 15:22:53;;;;;;;6.90;4.30;;;27.10;72.50;;;;;;5067169;28;20270;-7
2022/05/20 15:25:19;;;;;;;5.10;4.43;;;27.10;72.60;;;;;;5049299;28;20550;-6
2022/05/20 15:27:44;;;;;;;6.37;4.67;;;27.10;72.80;;;;;;5068148;28;20610;-7
2022/05/20 15:30:10;;;;;;;6.83;4.60;;;27.00;72.90;;;;;;5049758;28;20452;-5
2022/05/20 15:35:20;;;;;;;4.77;4.30;;;27.00;73.40;;;;;;5067269;28;20255;-5
2022/05/20 15:37:46;;;;;;;5.23;4.70;;;27.00;73.60;;;;;;5067827;28;20262;-7
2022/05/20 15:40:19;;;;;;;4.43;3.97;;;27.00;73.80;;;;;;5065963;28;20167;-6
2022/05/20 15:42:45;;;;;;;5.63;4.23;;;27.00;73.80;;;;;;5049104;28;20601;-7
2022/05/20 15:45:14;;;;;;;5.97;4.27;;;27.00;74.00;;;;;;5048656;28;20164;-6
2022/05/20 15:47:40;;;;;;;5.43;4.40;;;27.00;74.10;;;;;;5048435;28;20461;-7
2022/05/20 15:50:07;;;;;;;5.87;3.83;;;27.00;74.20;;;;;;5067550;28;20258;-7
2022/05/20 15:52:42;;;;;;;5.07;4.23;;;27.00;74.30;;;;;;5049070;28;20179;-6
2022/05/20 15:55:47;;;;;;;8.30;4.17;;;27.00;74.40;;;;;;5066371;28;20217;-5
2022/05/20 15:58:19;;;;;;;5.43;4.00;;;27.00;74.50;;;;;;5055226;28;20280;-6
2022/05/20 16:00:45;;;;;;;5.17;4.00;;;27.00;74.40;;;;;;5070661;28;20501;-6
2022/05/20 16:03:11;;;;;;;5.43;3.97;;;27.00;74.40;;;;;;5053335;28;20230;-6
2022/05/20 16:05:39;;;;;;;4.27;3.70;;;26.90;74.50;;;;;;5052241;28;20195;-6
2022/05/20 16:08:14;;;;;;;4.67;4.20;;;26.90;74.60;;;;;;5071540;28;20470;-7
2022/05/20 16:10:44;;;;;;;5.80;3.70;;;26.90;74.70;;;;;;5053540;28;20240;-6
2022/05/20 16:13:10;;;;;;;3.93;3.63;;;26.90;75.00;;;;;;5053288;28;20172;-6
2022/05/20 16:15:36;;;;;;;4.80;3.77;;;26.90;75.30;;;;;;5071754;28;20194;-6
2022/05/20 16:18:03;;;;;;;5.20;3.43;;;26.90;76.10;;;;;;5053069;28;20218;-6
2022/05/20 16:20:30;;;;;;;3.80;3.50;;;26.90;76.40;;;;;;5053175;28;20355;-5
2022/05/20 16:22:57;;;;;;;3.90;3.27;;;26.90;76.60;;;;;;5053570;28;20171;-5
2022/05/20 16:25:24;;;;;;;3.83;3.20;;;26.80;76.60;;;;;;5055036;28;20256;-5